sensor_id;sensor_type;location;lat;lon;timestamp;temperature;humidity
43541;DHT22;29549;40.386;-3.710;2022-10-31T00:03:19;15.20;69.00
43541;DHT22;29549;40.386;-3.710;2022-10-31T00:13:20;15.20;69.00
43541;DHT22;29549;40.386;-3.710;2022-10-31T00:23:22;15.30;68.40
43541;DHT22;29549;40.386;-3.710;2022-10-31T00:33:23;15.20;68.00
43541;DHT22;29549;40.386;-3.710;2022-10-31T00:43:25;15.00;67.80
43541;DHT22;29549;40.386;-3.710;2022-10-31T00:53:26;14.70;68.20
43541;DHT22;29549;40.386;-3.710;2022-10-31T01:03:31;14.60;69.00
43541;DHT22;29549;40.386;-3.710;2022-10-31T01:13:33;14.60;69.30
43541;DHT22;29549;40.386;-3.710;2022-10-31T01:23:35;14.50;69.20
43541;DHT22;29549;40.386;-3.710;2022-10-31T01:33:37;14.40;69.50
43541;DHT22;29549;40.386;-3.710;2022-10-31T01:43:46;14.30;69.60
43541;DHT22;29549;40.386;-3.710;2022-10-31T01:53:48;14.20;69.90
43541;DHT22;29549;40.386;-3.710;2022-10-31T02:03:51;14.10;70.30
43541;DHT22;29549;40.386;-3.710;2022-10-31T02:13:53;14.00;70.70
43541;DHT22;29549;40.386;-3.710;2022-10-31T02:24:11;14.00;70.70
43541;DHT22;29549;40.386;-3.710;2022-10-31T02:34:20;14.10;70.20
43541;DHT22;29549;40.386;-3.710;2022-10-31T02:44:33;14.20;70.40
43541;DHT22;29549;40.386;-3.710;2022-10-31T02:54:36;14.20;70.40
43541;DHT22;29549;40.386;-3.710;2022-10-31T03:04:49;14.20;70.70
43541;DHT22;29549;40.386;-3.710;2022-10-31T03:25:07;14.20;70.80
43541;DHT22;29549;40.386;-3.710;2022-10-31T03:35:13;14.10;70.90
43541;DHT22;29549;40.386;-3.710;2022-10-31T03:45:29;14.10;71.20
43541;DHT22;29549;40.386;-3.710;2022-10-31T03:55:56;14.20;71.00
43541;DHT22;29549;40.386;-3.710;2022-10-31T04:06:04;14.30;70.60
43541;DHT22;29549;40.386;-3.710;2022-10-31T04:16:09;14.40;70.60
43541;DHT22;29549;40.386;-3.710;2022-10-31T04:26:12;14.60;70.40
43541;DHT22;29549;40.386;-3.710;2022-10-31T04:36:33;14.60;70.10
43541;DHT22;29549;40.386;-3.710;2022-10-31T04:46:55;14.70;69.60
43541;DHT22;29549;40.386;-3.710;2022-10-31T04:57:16;14.50;69.70
43541;DHT22;29549;40.386;-3.710;2022-10-31T05:07:23;14.30;70.10
43541;DHT22;29549;40.386;-3.710;2022-10-31T05:17:26;14.20;70.40
43541;DHT22;29549;40.386;-3.710;2022-10-31T05:27:32;14.20;70.50
43541;DHT22;29549;40.386;-3.710;2022-10-31T05:37:35;14.00;71.10
43541;DHT22;29549;40.386;-3.710;2022-10-31T05:47:38;14.10;71.00
43541;DHT22;29549;40.386;-3.710;2022-10-31T05:57:40;14.00;71.20
43541;DHT22;29549;40.386;-3.710;2022-10-31T06:07:41;14.10;71.20
43541;DHT22;29549;40.386;-3.710;2022-10-31T06:17:43;14.10;71.10
43541;DHT22;29549;40.386;-3.710;2022-10-31T06:27:45;14.30;70.80
43541;DHT22;29549;40.386;-3.710;2022-10-31T06:37:53;14.30;70.70
43541;DHT22;29549;40.386;-3.710;2022-10-31T06:47:55;14.40;70.70
43541;DHT22;29549;40.386;-3.710;2022-10-31T06:58:00;14.50;70.50
43541;DHT22;29549;40.386;-3.710;2022-10-31T07:08:05;14.50;70.30
43541;DHT22;29549;40.386;-3.710;2022-10-31T07:18:09;14.60;70.40
43541;DHT22;29549;40.386;-3.710;2022-10-31T07:28:11;14.60;70.20
43541;DHT22;29549;40.386;-3.710;2022-10-31T07:38:14;14.60;70.40
43541;DHT22;29549;40.386;-3.710;2022-10-31T07:48:16;14.70;70.00
43541;DHT22;29549;40.386;-3.710;2022-10-31T07:58:17;14.80;70.10
43541;DHT22;29549;40.386;-3.710;2022-10-31T08:08:19;14.80;70.10
43541;DHT22;29549;40.386;-3.710;2022-10-31T08:18:21;15.00;70.30
43541;DHT22;29549;40.386;-3.710;2022-10-31T08:28:25;15.20;70.20
43541;DHT22;29549;40.386;-3.710;2022-10-31T08:38:26;15.30;70.10
43541;DHT22;29549;40.386;-3.710;2022-10-31T08:48:28;15.50;69.80
43541;DHT22;29549;40.386;-3.710;2022-10-31T08:58:30;15.60;69.30
43541;DHT22;29549;40.386;-3.710;2022-10-31T09:08:32;15.70;68.90
43541;DHT22;29549;40.386;-3.710;2022-10-31T09:18:34;15.80;68.80
43541;DHT22;29549;40.386;-3.710;2022-10-31T09:28:36;15.80;68.90
43541;DHT22;29549;40.386;-3.710;2022-10-31T09:38:37;16.00;68.90
43541;DHT22;29549;40.386;-3.710;2022-10-31T09:59:04;16.20;69.00
43541;DHT22;29549;40.386;-3.710;2022-10-31T10:09:07;16.30;69.20
43541;DHT22;29549;40.386;-3.710;2022-10-31T10:19:43;16.40;68.70
43541;DHT22;29549;40.386;-3.710;2022-10-31T10:39:53;17.30;66.50
43541;DHT22;29549;40.386;-3.710;2022-10-31T10:49:57;18.10;63.80
43541;DHT22;29549;40.386;-3.710;2022-10-31T11:00:15;18.60;62.20
43541;DHT22;29549;40.386;-3.710;2022-10-31T11:10:18;19.20;60.30
43541;DHT22;29549;40.386;-3.710;2022-10-31T11:30:21;19.50;59.50
43541;DHT22;29549;40.386;-3.710;2022-10-31T11:40:25;19.70;58.40
43541;DHT22;29549;40.386;-3.710;2022-10-31T11:50:38;19.80;57.70
43541;DHT22;29549;40.386;-3.710;2022-10-31T12:00:49;19.90;57.70
43541;DHT22;29549;40.386;-3.710;2022-10-31T12:11:21;19.70;58.20
43541;DHT22;29549;40.386;-3.710;2022-10-31T13:13:24;20.10;59.30
43541;DHT22;29549;40.386;-3.710;2022-10-31T13:23:36;20.00;58.90
43541;DHT22;29549;40.386;-3.710;2022-10-31T13:33:42;20.10;58.30
43541;DHT22;29549;40.386;-3.710;2022-10-31T13:53:59;20.10;60.00
43541;DHT22;29549;40.386;-3.710;2022-10-31T14:14:11;18.90;61.80
43541;DHT22;29549;40.386;-3.710;2022-10-31T14:24:35;18.70;63.90
43541;DHT22;29549;40.386;-3.710;2022-10-31T14:54:53;18.40;67.70
43541;DHT22;29549;40.386;-3.710;2022-10-31T15:04:56;18.40;68.30
43541;DHT22;29549;40.386;-3.710;2022-10-31T15:15:10;18.30;67.80
43541;DHT22;29549;40.386;-3.710;2022-10-31T15:25:20;18.30;68.90
43541;DHT22;29549;40.386;-3.710;2022-10-31T15:35:28;18.30;68.10
43541;DHT22;29549;40.386;-3.710;2022-10-31T15:45:31;18.20;67.70
43541;DHT22;29549;40.386;-3.710;2022-10-31T15:55:37;18.20;69.40
43541;DHT22;29549;40.386;-3.710;2022-10-31T16:05:51;18.00;71.30
43541;DHT22;29549;40.386;-3.710;2022-10-31T16:15:56;17.80;72.60
43541;DHT22;29549;40.386;-3.710;2022-10-31T16:25:59;17.80;74.10
43541;DHT22;29549;40.386;-3.710;2022-10-31T16:36:29;17.70;74.50
43541;DHT22;29549;40.386;-3.710;2022-10-31T16:46:32;17.70;73.90
43541;DHT22;29549;40.386;-3.710;2022-10-31T16:56:34;17.70;70.90
43541;DHT22;29549;40.386;-3.710;2022-10-31T17:06:36;17.90;70.00
43541;DHT22;29549;40.386;-3.710;2022-10-31T17:16:37;17.90;69.70
43541;DHT22;29549;40.386;-3.710;2022-10-31T17:26:39;17.80;68.40
43541;DHT22;29549;40.386;-3.710;2022-10-31T17:36:41;17.70;66.20
43541;DHT22;29549;40.386;-3.710;2022-10-31T17:46:43;17.60;68.00
43541;DHT22;29549;40.386;-3.710;2022-10-31T17:56:45;17.60;67.50
43541;DHT22;29549;40.386;-3.710;2022-10-31T18:06:46;17.50;67.70
43541;DHT22;29549;40.386;-3.710;2022-10-31T18:16:50;17.60;67.80
43541;DHT22;29549;40.386;-3.710;2022-10-31T18:26:51;17.60;68.10
43541;DHT22;29549;40.386;-3.710;2022-10-31T18:36:53;17.60;67.90
43541;DHT22;29549;40.386;-3.710;2022-10-31T18:46:54;17.60;68.30
43541;DHT22;29549;40.386;-3.710;2022-10-31T18:56:55;17.60;68.50
43541;DHT22;29549;40.386;-3.710;2022-10-31T19:06:57;17.50;68.20
43541;DHT22;29549;40.386;-3.710;2022-10-31T19:16:58;17.60;68.30
43541;DHT22;29549;40.386;-3.710;2022-10-31T19:26:59;17.60;68.50
43541;DHT22;29549;40.386;-3.710;2022-10-31T19:37:01;17.60;69.20
43541;DHT22;29549;40.386;-3.710;2022-10-31T19:47:02;17.50;69.10
43541;DHT22;29549;40.386;-3.710;2022-10-31T19:57:04;17.50;69.50
43541;DHT22;29549;40.386;-3.710;2022-10-31T20:07:06;17.40;69.40
43541;DHT22;29549;40.386;-3.710;2022-10-31T20:17:08;17.40;69.40
43541;DHT22;29549;40.386;-3.710;2022-10-31T20:27:09;17.50;69.10
43541;DHT22;29549;40.386;-3.710;2022-10-31T20:37:11;17.40;70.50
43541;DHT22;29549;40.386;-3.710;2022-10-31T20:47:12;17.30;70.40
43541;DHT22;29549;40.386;-3.710;2022-10-31T20:57:13;17.20;70.50
43541;DHT22;29549;40.386;-3.710;2022-10-31T21:07:15;17.20;70.80
43541;DHT22;29549;40.386;-3.710;2022-10-31T21:17:16;17.30;70.60
43541;DHT22;29549;40.386;-3.710;2022-10-31T21:27:18;17.20;70.60
43541;DHT22;29549;40.386;-3.710;2022-10-31T21:37:19;17.30;70.90
43541;DHT22;29549;40.386;-3.710;2022-10-31T21:47:20;17.30;70.70
43541;DHT22;29549;40.386;-3.710;2022-10-31T21:57:22;17.20;70.90
43541;DHT22;29549;40.386;-3.710;2022-10-31T22:07:23;17.20;70.90
43541;DHT22;29549;40.386;-3.710;2022-10-31T22:17:24;17.20;71.40
43541;DHT22;29549;40.386;-3.710;2022-10-31T22:27:26;17.10;71.50
43541;DHT22;29549;40.386;-3.710;2022-10-31T22:37:27;17.10;71.80
43541;DHT22;29549;40.386;-3.710;2022-10-31T22:47:28;17.10;71.70
43541;DHT22;29549;40.386;-3.710;2022-10-31T22:57:30;17.10;71.90
43541;DHT22;29549;40.386;-3.710;2022-10-31T23:07:31;17.10;72.20
43541;DHT22;29549;40.386;-3.710;2022-10-31T23:17:32;17.00;72.30
43541;DHT22;29549;40.386;-3.710;2022-10-31T23:27:34;17.00;72.10
43541;DHT22;29549;40.386;-3.710;2022-10-31T23:37:36;16.90;73.00
43541;DHT22;29549;40.386;-3.710;2022-10-31T23:47:38;16.90;73.30
43541;DHT22;29549;40.386;-3.710;2022-10-31T23:57:40;16.70;73.50
